Eatonville, Washington
Current Conditions -  °F | °C
As of 7:58 PM on Wednesday 26 Nov 2014 (Local Time) from KGRF Reporting Station
Overcast Overcast  
Wind Chill: 56°   Ceiling: 11000
Heat Index: 56°   Visibility: 10mi
Dew Point: 52°   Wind: 8mph
Humidity: 87%   Direction: 190°S
Pressure: 29.91"   Gusts: NA
Location:  46.87°N, 122.27°W
Report Text: KGRF 270358Z AUTO 19007KT 10SM OVC110 13/11 A2991 RMK AO2 SLP132 T01340113 PWINO $
Loading
Personal Weather Stations






























Interactive Weather Map New forecast layout! Learn more

10-Day Weather Forecast

Advertisements
Track Severe Weather on mobile